Time;durP1;ratioP1;P1;durP2;ratioP2;P2;SDS_P1;SDS_P2;PMS_P1;PMS_P2;Temp;Humidity;BMP_temperature;BMP_pressure;BME280_temperature;BME280_humidity;BME280_pressure;Samples;Min_cycle;Max_cycle;Signal;HPM_P1;HPM_P2
2023/04/07 00:00:54;;;;;;;21.33;14.25;;;;;;;;;;4866034;29;20060;-87
2023/04/07 00:03:20;;;;;;;19.45;12.82;;;;;;;;;;4861979;29;20053;-88
2023/04/07 00:05:46;;;;;;;19.42;14.43;;;;;;;;;;4864217;29;20049;-89
2023/04/07 00:08:12;;;;;;;18.33;13.93;;;;;;;;;;4849192;29;20112;-88
2023/04/07 00:10:39;;;;;;;19.90;14.55;;;;;;;;;;4864052;29;20065;-88
2023/04/07 00:13:05;;;;;;;22.38;16.17;;;;;;;;;;4849314;29;20045;-88
2023/04/07 00:15:31;;;;;;;19.23;14.13;;;;;;;;;;4848519;29;20116;-88
2023/04/07 00:17:57;;;;;;;22.83;15.32;;;;;;;;;;4863814;29;20055;-88
2023/04/07 00:20:23;;;;;;;19.70;15.30;;;;;;;;;;4833746;29;20049;-88
2023/04/07 00:22:49;;;;;;;23.65;16.67;;;;;;;;;;4848581;29;20049;-89
2023/04/07 00:25:15;;;;;;;21.33;15.57;;;;;;;;;;4863465;29;20053;-88
2023/04/07 00:27:41;;;;;;;25.63;16.73;;;;;;;;;;4833065;29;20075;-89
2023/04/07 00:30:08;;;;;;;20.15;14.50;;;;;;;;;;4863622;29;20478;-88
2023/04/07 00:32:34;;;;;;;22.67;16.73;;;;;;;;;;4832844;29;20506;-89
2023/04/07 00:35:00;;;;;;;22.95;16.00;;;;;;;;;;4863533;29;20083;-89
2023/04/07 00:37:26;;;;;;;22.85;16.92;;;;;;;;;;4863382;29;20152;-88
2023/04/07 00:39:52;;;;;;;21.92;15.90;;;;;;;;;;4880256;29;20049;-88
2023/04/07 00:42:18;;;;;;;24.40;15.63;;;;;;;;;;4862949;29;20148;-90
2023/04/07 00:44:44;;;;;;;23.45;15.95;;;;;;;;;;4847846;29;20136;-89
2023/04/07 00:47:11;;;;;;;23.67;16.88;;;;;;;;;;4847899;29;20562;-88
2023/04/07 00:49:37;;;;;;;22.48;16.25;;;;;;;;;;4848353;29;20049;-91
2023/04/07 00:52:06;;;;;;;22.50;16.75;;;;;;;;;;4863060;29;20053;-89
2023/04/07 00:54:32;;;;;;;24.15;17.20;;;;;;;;;;4863470;29;20502;-89
2023/04/07 00:57:00;;;;;;;26.65;17.80;;;;;;;;;;4863608;29;20097;-90
2023/04/07 00:59:28;;;;;;;27.27;17.65;;;;;;;;;;4847834;29;20049;-90
2023/04/07 01:01:57;;;;;;;24.23;17.40;;;;;;;;;;4863080;29;20136;-89
2023/04/07 01:04:30;;;;;;;25.17;17.50;;;;;;;;;;4847810;29;20057;-90
2023/04/07 01:06:58;;;;;;;25.08;18.23;;;;;;;;;;4863471;29;20064;-92
2023/04/07 01:09:36;;;;;;;26.98;17.58;;;;;;;;;;4863536;29;20521;-93
2023/04/07 01:12:09;;;;;;;30.70;19.63;;;;;;;;;;4848736;29;20053;-90
2023/04/07 01:14:45;;;;;;;29.58;18.50;;;;;;;;;;4847510;29;20060;-89
2023/04/07 01:17:11;;;;;;;29.65;18.08;;;;;;;;;;4847508;29;20053;-91
2023/04/07 01:19:45;;;;;;;22.90;17.17;;;;;;;;;;4849485;29;20053;-88
2023/04/07 01:22:12;;;;;;;24.25;17.13;;;;;;;;;;4851802;29;20049;-90
2023/04/07 01:24:47;;;;;;;26.58;17.55;;;;;;;;;;4851129;29;20048;-88
2023/04/07 01:27:19;;;;;;;24.33;17.90;;;;;;;;;;4850663;29;20510;-89
2023/04/07 01:29:47;;;;;;;25.02;17.73;;;;;;;;;;4866107;29;20057;-88
2023/04/07 01:32:14;;;;;;;26.45;18.90;;;;;;;;;;4866079;29;20060;-89
2023/04/07 01:34:41;;;;;;;24.50;16.83;;;;;;;;;;4851063;29;20049;-88
2023/04/07 01:37:07;;;;;;;26.17;18.25;;;;;;;;;;4850986;29;20052;-89
2023/04/07 01:39:34;;;;;;;27.83;18.13;;;;;;;;;;4850625;29;20502;-89
2023/04/07 01:42:04;;;;;;;27.92;17.83;;;;;;;;;;4835670;29;20057;-90
2023/04/07 01:44:32;;;;;;;31.88;19.50;;;;;;;;;;4866273;29;20502;-91
2023/04/07 01:46:59;;;;;;;31.75;18.63;;;;;;;;;;4851013;29;20093;-90
2023/04/07 01:49:28;;;;;;;24.17;17.60;;;;;;;;;;4851644;29;20045;-89
2023/04/07 01:51:54;;;;;;;28.45;19.13;;;;;;;;;;4850577;29;20056;-90
2023/04/07 01:54:21;;;;;;;23.63;17.70;;;;;;;;;;4835091;29;20057;-89
2023/04/07 01:56:47;;;;;;;27.80;18.30;;;;;;;;;;4835617;29;20491;-89
2023/04/07 01:59:13;;;;;;;28.17;18.98;;;;;;;;;;4850678;29;20056;-88
2023/04/07 02:01:39;;;;;;;26.27;18.85;;;;;;;;;;4866385;29;20053;-89
2023/04/07 02:04:16;;;;;;;26.33;17.77;;;;;;;;;;4850277;29;20090;-89
2023/04/07 02:06:44;;;;;;;27.88;18.33;;;;;;;;;;4865964;29;20065;-88
2023/04/07 02:09:11;;;;;;;27.20;18.85;;;;;;;;;;4850420;29;20053;-90
2023/04/07 02:11:38;;;;;;;25.98;17.67;;;;;;;;;;4852563;29;20064;-91
2023/04/07 02:14:06;;;;;;;24.65;17.20;;;;;;;;;;4835700;29;20080;-90
2023/04/07 02:16:35;;;;;;;23.85;16.65;;;;;;;;;;4853028;29;20099;-90
2023/04/07 02:19:02;;;;;;;22.45;16.98;;;;;;;;;;4854084;29;20053;-90
2023/04/07 02:21:29;;;;;;;24.73;17.98;;;;;;;;;;4866377;29;20069;-90
2023/04/07 02:23:55;;;;;;;24.98;16.70;;;;;;;;;;4834765;29;20053;-88
2023/04/07 02:26:21;;;;;;;25.88;17.90;;;;;;;;;;4850125;29;20065;-89
2023/04/07 02:28:48;;;;;;;22.67;15.98;;;;;;;;;;4865884;29;20068;-90
2023/04/07 02:31:14;;;;;;;20.33;15.55;;;;;;;;;;4866600;29;20064;-89
2023/04/07 02:33:40;;;;;;;20.95;16.13;;;;;;;;;;4866042;29;20499;-90
2023/04/07 02:36:06;;;;;;;25.20;17.30;;;;;;;;;;4866088;29;20076;-91
2023/04/07 02:38:32;;;;;;;23.52;16.15;;;;;;;;;;4850760;29;20049;-93
2023/04/07 02:40:58;;;;;;;22.42;16.73;;;;;;;;;;4850279;29;20099;-89
2023/04/07 02:43:24;;;;;;;22.42;16.27;;;;;;;;;;4835448;29;20052;-90
2023/04/07 02:45:50;;;;;;;22.17;15.55;;;;;;;;;;4865995;29;20056;-89
2023/04/07 02:48:16;;;;;;;23.27;16.35;;;;;;;;;;4850253;29;20092;-89
2023/04/07 02:50:43;;;;;;;22.92;16.67;;;;;;;;;;4865522;29;20067;-89
2023/04/07 02:53:09;;;;;;;25.77;16.98;;;;;;;;;;4850120;29;20049;-89
2023/04/07 02:55:35;;;;;;;20.63;15.05;;;;;;;;;;4865723;29;20081;-89
2023/04/07 02:58:01;;;;;;;22.58;15.48;;;;;;;;;;4850136;29;20077;-88
2023/04/07 03:00:27;;;;;;;22.13;16.02;;;;;;;;;;4865560;29;20057;-89
2023/04/07 03:02:53;;;;;;;20.80;15.95;;;;;;;;;;4849970;29;20085;-88
2023/04/07 03:05:19;;;;;;;20.30;15.38;;;;;;;;;;4865221;29;20132;-88
2023/04/07 03:07:45;;;;;;;21.52;15.65;;;;;;;;;;4834734;29;20064;-89
2023/04/07 03:10:11;;;;;;;21.60;15.23;;;;;;;;;;4865257;29;20136;-89
2023/04/07 03:12:37;;;;;;;24.05;15.48;;;;;;;;;;4834840;29;20084;-89
2023/04/07 03:15:04;;;;;;;21.38;15.77;;;;;;;;;;4849925;29;20069;-89
2023/04/07 03:17:33;;;;;;;23.33;16.33;;;;;;;;;;4850929;29;20414;-90
2023/04/07 03:19:59;;;;;;;22.88;15.70;;;;;;;;;;4882347;29;20117;-90
2023/04/07 03:22:25;;;;;;;22.63;15.57;;;;;;;;;;4834777;29;20053;-91
2023/04/07 03:24:51;;;;;;;22.98;16.70;;;;;;;;;;4849710;29;20057;-91
2023/04/07 03:27:19;;;;;;;25.35;17.60;;;;;;;;;;4834366;29;20526;-90
2023/04/07 03:29:46;;;;;;;21.55;15.82;;;;;;;;;;4849729;29;20459;-89
2023/04/07 03:32:12;;;;;;;22.95;16.15;;;;;;;;;;4849407;29;20053;-89
2023/04/07 03:34:38;;;;;;;21.50;15.70;;;;;;;;;;4864837;29;20073;-90
2023/04/07 03:37:04;;;;;;;22.35;15.93;;;;;;;;;;4849561;29;20048;-89
2023/04/07 03:39:30;;;;;;;21.58;16.33;;;;;;;;;;4834872;29;20049;-90
2023/04/07 03:41:57;;;;;;;26.30;17.98;;;;;;;;;;4864347;29;20083;-92
2023/04/07 03:44:23;;;;;;;21.17;14.85;;;;;;;;;;4849409;29;20053;-91
2023/04/07 03:46:49;;;;;;;24.40;15.52;;;;;;;;;;4849387;29;20383;-90
2023/04/07 03:49:15;;;;;;;24.08;15.73;;;;;;;;;;4865276;29;20049;-91
2023/04/07 03:51:42;;;;;;;24.48;16.70;;;;;;;;;;4849428;29;20053;-91
2023/04/07 03:54:08;;;;;;;21.58;15.27;;;;;;;;;;4849457;29;20057;-91
2023/04/07 03:56:34;;;;;;;21.08;15.35;;;;;;;;;;4849578;29;20049;-91
2023/04/07 03:59:00;;;;;;;21.45;15.95;;;;;;;;;;4849169;29;20088;-92
2023/04/07 04:01:26;;;;;;;23.15;16.30;;;;;;;;;;4849592;29;20060;-93
2023/04/07 04:03:52;;;;;;;21.80;15.38;;;;;;;;;;4835251;29;20057;-94
2023/04/07 04:06:19;;;;;;;22.00;17.00;;;;;;;;;;4865330;29;20423;-93
2023/04/07 04:08:45;;;;;;;24.15;16.33;;;;;;;;;;4835542;29;20057;-93
2023/04/07 04:11:11;;;;;;;21.13;15.88;;;;;;;;;;4848946;29;20053;-90
2023/04/07 04:13:37;;;;;;;20.02;15.35;;;;;;;;;;4848133;29;20052;-90
2023/04/07 04:16:03;;;;;;;21.30;14.63;;;;;;;;;;4848054;29;20080;-90
2023/04/07 04:18:29;;;;;;;21.00;15.57;;;;;;;;;;4848574;29;20049;-89
2023/04/07 04:20:55;;;;;;;20.05;15.13;;;;;;;;;;4864363;29;20052;-89
2023/04/07 04:23:21;;;;;;;21.38;14.25;;;;;;;;;;4833995;29;20049;-91
2023/04/07 04:25:47;;;;;;;18.55;14.55;;;;;;;;;;4833552;29;20083;-89
2023/04/07 04:28:13;;;;;;;18.95;14.65;;;;;;;;;;4834192;29;20064;-89
2023/04/07 04:30:40;;;;;;;22.17;15.52;;;;;;;;;;4834121;29;20075;-90
2023/04/07 04:33:06;;;;;;;19.42;13.90;;;;;;;;;;4865016;29;20148;-90
2023/04/07 04:35:32;;;;;;;19.75;14.98;;;;;;;;;;4864451;29;20064;-89
2023/04/07 04:37:58;;;;;;;21.63;14.00;;;;;;;;;;4864540;29;20063;-90
2023/04/07 04:40:24;;;;;;;21.67;16.48;;;;;;;;;;4833645;29;20049;-89
2023/04/07 04:42:50;;;;;;;21.80;16.85;;;;;;;;;;4849504;29;20061;-90
2023/04/07 04:45:17;;;;;;;23.70;16.02;;;;;;;;;;4848276;29;20053;-91
2023/04/07 04:47:43;;;;;;;20.98;15.40;;;;;;;;;;4848777;29;20057;-90
2023/04/07 04:50:09;;;;;;;20.20;15.60;;;;;;;;;;4833818;29;20139;-90
2023/04/07 04:52:37;;;;;;;19.88;15.05;;;;;;;;;;4864677;29;20063;-89
2023/04/07 04:55:08;;;;;;;22.02;15.90;;;;;;;;;;4848711;29;20521;-89
2023/04/07 04:57:35;;;;;;;23.88;16.15;;;;;;;;;;4848724;29;20057;-89
2023/04/07 05:00:03;;;;;;;22.35;15.50;;;;;;;;;;4864008;29;20057;-88
2023/04/07 05:02:29;;;;;;;21.80;15.90;;;;;;;;;;4864170;29;20065;-89
2023/04/07 05:04:55;;;;;;;27.63;16.88;;;;;;;;;;4849080;29;20060;-88
2023/04/07 05:07:21;;;;;;;26.85;18.10;;;;;;;;;;4847806;29;20414;-90
2023/04/07 05:09:47;;;;;;;22.38;16.45;;;;;;;;;;4833710;29;20057;-89
2023/04/07 05:12:15;;;;;;;20.58;16.23;;;;;;;;;;4863656;29;20081;-92
2023/04/07 05:14:41;;;;;;;21.17;15.50;;;;;;;;;;4864165;29;20053;-89
2023/04/07 05:17:07;;;;;;;22.85;16.40;;;;;;;;;;4833140;29;20061;-90
2023/04/07 05:19:33;;;;;;;26.00;16.20;;;;;;;;;;4864016;29;20071;-89
2023/04/07 05:22:00;;;;;;;23.98;17.08;;;;;;;;;;4848710;29;20068;-90
2023/04/07 05:24:29;;;;;;;24.10;16.98;;;;;;;;;;4863853;29;20109;-90
2023/04/07 05:26:55;;;;;;;26.15;17.33;;;;;;;;;;4847853;29;20069;-89
2023/04/07 05:29:22;;;;;;;22.40;17.38;;;;;;;;;;4834994;29;20056;-94
2023/04/07 05:31:48;;;;;;;27.30;17.60;;;;;;;;;;4864941;29;20053;-91
2023/04/07 05:34:14;;;;;;;25.50;17.63;;;;;;;;;;4833707;29;20093;-92
2023/04/07 05:36:40;;;;;;;25.15;16.88;;;;;;;;;;4864302;29;20567;-92
2023/04/07 05:39:07;;;;;;;25.73;16.92;;;;;;;;;;4848107;29;20064;-90
2023/04/07 05:41:33;;;;;;;20.83;15.73;;;;;;;;;;4847406;29;20049;-90
2023/04/07 05:43:59;;;;;;;23.75;16.95;;;;;;;;;;4848162;29;20052;-92
2023/04/07 05:46:25;;;;;;;23.65;16.58;;;;;;;;;;4832965;29;20053;-92
2023/04/07 05:48:51;;;;;;;23.45;16.98;;;;;;;;;;4847557;29;20056;-92
2023/04/07 05:51:17;;;;;;;24.95;17.10;;;;;;;;;;4832760;29;20088;-90
2023/04/07 05:53:43;;;;;;;25.30;17.15;;;;;;;;;;4848124;29;20071;-89
2023/04/07 05:56:12;;;;;;;25.88;17.83;;;;;;;;;;4847852;29;20049;-94
2023/04/07 05:58:38;;;;;;;26.75;15.80;;;;;;;;;;4832986;29;20049;-94
2023/04/07 06:01:04;;;;;;;22.55;16.55;;;;;;;;;;4847308;29;20056;-89
2023/04/07 06:03:30;;;;;;;23.55;15.98;;;;;;;;;;4864128;29;20418;-92
2023/04/07 06:05:57;;;;;;;25.80;16.23;;;;;;;;;;4834902;29;20143;-90
2023/04/07 06:08:23;;;;;;;26.98;15.77;;;;;;;;;;4866976;29;20129;-89
2023/04/07 06:10:49;;;;;;;22.48;16.23;;;;;;;;;;4836086;29;20088;-89
2023/04/07 06:13:15;;;;;;;21.40;14.95;;;;;;;;;;4866284;29;20525;-90
2023/04/07 06:15:41;;;;;;;22.58;15.35;;;;;;;;;;4835729;29;20557;-90
2023/04/07 06:18:07;;;;;;;22.50;15.30;;;;;;;;;;4836010;29;20056;-90
2023/04/07 06:20:34;;;;;;;25.73;16.13;;;;;;;;;;4835829;29;20566;-89
2023/04/07 06:23:00;;;;;;;23.42;15.80;;;;;;;;;;4866541;29;20060;-89
2023/04/07 06:25:26;;;;;;;21.88;14.75;;;;;;;;;;4851443;29;20088;-89
2023/04/07 06:27:53;;;;;;;20.80;14.93;;;;;;;;;;4866473;29;20049;-89
2023/04/07 06:30:20;;;;;;;20.85;15.05;;;;;;;;;;4851575;29;20060;-89
2023/04/07 06:32:46;;;;;;;20.98;14.63;;;;;;;;;;4836395;29;20398;-90
2023/04/07 06:35:12;;;;;;;18.85;14.40;;;;;;;;;;4866594;29;20506;-90
2023/04/07 06:37:38;;;;;;;21.00;14.90;;;;;;;;;;4835655;29;20064;-90
2023/04/07 06:40:05;;;;;;;24.40;14.95;;;;;;;;;;4835159;29;20495;-89
2023/04/07 06:42:31;;;;;;;22.58;14.82;;;;;;;;;;4865195;29;20057;-89
2023/04/07 06:44:57;;;;;;;20.77;15.07;;;;;;;;;;4835122;29;20456;-89
2023/04/07 06:47:23;;;;;;;23.92;16.20;;;;;;;;;;4865202;29;20144;-90
2023/04/07 06:49:49;;;;;;;24.65;16.75;;;;;;;;;;4849983;29;20061;-90
2023/04/07 06:52:15;;;;;;;20.83;15.02;;;;;;;;;;4849961;29;20061;-90
2023/04/07 06:54:41;;;;;;;22.15;15.00;;;;;;;;;;4864801;29;20049;-90
2023/04/07 06:57:10;;;;;;;19.63;14.60;;;;;;;;;;4834786;29;20499;-89
2023/04/07 06:59:40;;;;;;;27.10;17.40;;;;;;;;;;4850328;29;20414;-91
2023/04/07 07:02:06;;;;;;;20.52;15.13;;;;;;;;;;4850227;29;20057;-88
2023/04/07 07:04:33;;;;;;;26.63;15.32;;;;;;;;;;4865524;29;20045;-89
2023/04/07 07:07:00;;;;;;;25.92;16.00;;;;;;;;;;4866574;29;20163;-92
2023/04/07 07:09:28;;;;;;;21.35;14.90;;;;;;;;;;4851969;29;20049;-91
2023/04/07 07:12:07;;;;;;;22.85;15.98;;;;;;;;;;4852658;29;20189;-91
2023/04/07 07:14:33;;;;;;;25.15;15.38;;;;;;;;;;4866706;29;20053;-90
2023/04/07 07:16:59;;;;;;;26.50;15.85;;;;;;;;;;4851966;29;20109;-91
2023/04/07 07:19:36;;;;;;;20.58;13.68;;;;;;;;;;4853324;29;20057;-90
2023/04/07 07:22:10;;;;;;;21.45;15.13;;;;;;;;;;4867019;29;20052;-89
2023/04/07 07:24:39;;;;;;;26.58;14.95;;;;;;;;;;4886290;24;20053;-92
2023/04/07 07:27:18;;;;;;;22.90;15.27;;;;;;;;;;4856194;29;20140;-92
2023/04/07 07:30:09;;;;;;;;;;;;;;;;;;;;;
2023/04/07 07:36:09;;;;;;;20.27;14.02;;;;;;;;;;4837012;29;20144;-92
2023/04/07 07:42:05;;;;;;;18.90;13.63;;;;;;;;;;4882322;29;20194;-93
2023/04/07 07:44:31;;;;;;;18.10;12.80;;;;;;;;;;4864872;29;20069;-91
2023/04/07 07:46:57;;;;;;;19.77;13.52;;;;;;;;;;4849000;29;20040;-92
2023/04/07 07:49:23;;;;;;;21.15;13.98;;;;;;;;;;4849409;29;20150;-90
2023/04/07 07:51:52;;;;;;;18.77;13.27;;;;;;;;;;4849590;29;20083;-92
2023/04/07 07:54:18;;;;;;;18.45;13.80;;;;;;;;;;4849149;29;20051;-91
2023/04/07 07:56:44;;;;;;;19.98;13.77;;;;;;;;;;4849157;29;20082;-91
2023/04/07 07:59:10;;;;;;;18.85;13.20;;;;;;;;;;4849007;29;20088;-92
2023/04/07 08:01:37;;;;;;;17.38;13.25;;;;;;;;;;4848522;29;20084;-91
2023/04/07 08:04:03;;;;;;;18.17;13.82;;;;;;;;;;4849191;29;20510;-90
2023/04/07 08:06:30;;;;;;;18.27;13.32;;;;;;;;;;4865261;29;20057;-91
2023/04/07 08:08:57;;;;;;;19.02;13.98;;;;;;;;;;4850392;29;20049;-90
2023/04/07 08:11:23;;;;;;;15.82;12.00;;;;;;;;;;4848887;29;20108;-90
2023/04/07 08:13:49;;;;;;;15.57;12.25;;;;;;;;;;4848400;29;20095;-91
2023/04/07 08:16:16;;;;;;;17.05;12.80;;;;;;;;;;4849083;29;20052;-92
2023/04/07 08:18:42;;;;;;;14.90;11.25;;;;;;;;;;4849591;29;20064;-91
2023/04/07 08:21:08;;;;;;;13.90;11.23;;;;;;;;;;4849403;29;20068;-91
2023/04/07 08:23:34;;;;;;;16.27;11.50;;;;;;;;;;4848667;29;20060;-91
2023/04/07 08:26:00;;;;;;;18.10;12.35;;;;;;;;;;4849366;29;20057;-91
2023/04/07 08:28:29;;;;;;;16.27;11.30;;;;;;;;;;4850083;29;20156;-92
2023/04/07 08:30:56;;;;;;;19.45;12.10;;;;;;;;;;4849446;29;20061;-92
2023/04/07 08:33:22;;;;;;;15.88;12.15;;;;;;;;;;4848747;29;20045;-93
2023/04/07 08:35:48;;;;;;;15.63;10.55;;;;;;;;;;4849009;29;20136;-90
2023/04/07 08:38:15;;;;;;;17.35;12.38;;;;;;;;;;4848467;29;20057;-91
2023/04/07 08:40:41;;;;;;;14.75;10.75;;;;;;;;;;4848632;29;20069;-91
2023/04/07 08:43:12;;;;;;;12.60;10.13;;;;;;;;;;4848417;29;20052;-87
2023/04/07 08:45:40;;;;;;;14.85;10.95;;;;;;;;;;4848452;29;20075;-91
2023/04/07 08:48:16;;;;;;;13.98;10.55;;;;;;;;;;4848637;29;20064;-90
2023/04/07 08:50:51;;;;;;;14.48;10.45;;;;;;;;;;4863555;29;20056;-90
2023/04/07 08:53:18;;;;;;;16.15;11.13;;;;;;;;;;4847828;29;20547;-92
2023/04/07 08:55:44;;;;;;;13.98;10.32;;;;;;;;;;4848637;29;20061;-94
2023/04/07 08:58:11;;;;;;;14.65;10.10;;;;;;;;;;4849233;29;20132;-90
2023/04/07 09:00:40;;;;;;;13.05;10.27;;;;;;;;;;4848111;29;20417;-90
2023/04/07 09:03:07;;;;;;;12.80;10.00;;;;;;;;;;4865723;29;20135;-92
2023/04/07 09:05:34;;;;;;;13.27;9.77;;;;;;;;;;4848847;29;20089;-90
2023/04/07 09:08:04;;;;;;;13.27;10.25;;;;;;;;;;4849333;29;20529;-90
2023/04/07 09:10:30;;;;;;;14.00;10.35;;;;;;;;;;4848563;29;20064;-90
2023/04/07 09:12:57;;;;;;;13.85;10.35;;;;;;;;;;4863708;29;20148;-90
2023/04/07 09:15:24;;;;;;;14.32;10.48;;;;;;;;;;4850486;29;20049;-90
2023/04/07 09:17:50;;;;;;;14.85;10.02;;;;;;;;;;4848825;29;20049;-90
2023/04/07 09:20:16;;;;;;;13.40;9.32;;;;;;;;;;4847920;29;20049;-89
2023/04/07 09:22:46;;;;;;;10.10;8.30;;;;;;;;;;4847820;29;20121;-90
2023/04/07 09:25:14;;;;;;;11.50;9.48;;;;;;;;;;4848538;29;20064;-90
2023/04/07 09:27:40;;;;;;;13.20;9.65;;;;;;;;;;4847541;29;20444;-90
2023/04/07 09:30:16;;;;;;;11.88;8.65;;;;;;;;;;4847675;29;20053;-90
2023/04/07 09:32:42;;;;;;;11.55;9.15;;;;;;;;;;4847827;29;20067;-90
2023/04/07 09:35:09;;;;;;;12.38;9.93;;;;;;;;;;4847831;29;20045;-90
2023/04/07 09:37:38;;;;;;;13.93;10.30;;;;;;;;;;4862594;29;20064;-89
2023/04/07 09:40:04;;;;;;;14.23;10.93;;;;;;;;;;4871051;29;20049;-88
2023/04/07 09:42:33;;;;;;;18.05;11.38;;;;;;;;;;4871900;29;20119;-90
2023/04/07 09:45:00;;;;;;;15.85;10.02;;;;;;;;;;4854212;29;20049;-91
2023/04/07 09:47:34;;;;;;;21.17;12.23;;;;;;;;;;4853228;29;20265;-90
2023/04/07 09:50:05;;;;;;;17.13;12.90;;;;;;;;;;4851994;29;20053;-90
2023/04/07 09:52:53;;;;;;;15.20;11.85;;;;;;;;;;4851782;29;20116;-89
2023/04/07 09:55:23;;;;;;;14.65;12.43;;;;;;;;;;4853536;29;20061;-89
2023/04/07 09:57:54;;;;;;;16.27;12.13;;;;;;;;;;4851636;29;20053;-89
2023/04/07 10:00:20;;;;;;;17.15;12.10;;;;;;;;;;4851684;29;20065;-90
2023/04/07 10:02:46;;;;;;;17.10;12.75;;;;;;;;;;4851445;29;20124;-94
2023/04/07 10:05:13;;;;;;;16.35;12.40;;;;;;;;;;4866461;29;20139;-91
2023/04/07 10:07:39;;;;;;;14.05;10.90;;;;;;;;;;4850990;29;20060;-91
2023/04/07 10:10:07;;;;;;;11.40;8.93;;;;;;;;;;4851313;29;20041;-91
2023/04/07 10:12:40;;;;;;;13.57;10.15;;;;;;;;;;4851737;29;20048;-90
2023/04/07 10:15:06;;;;;;;12.93;10.57;;;;;;;;;;4851009;29;20057;-92
2023/04/07 10:17:33;;;;;;;13.05;10.35;;;;;;;;;;4850943;29;20045;-90
2023/04/07 10:20:00;;;;;;;14.70;9.30;;;;;;;;;;4850138;29;20057;-90
2023/04/07 10:22:27;;;;;;;13.75;10.02;;;;;;;;;;4866430;29;20407;-90
2023/04/07 10:24:55;;;;;;;14.07;10.07;;;;;;;;;;4850327;29;20412;-90
2023/04/07 10:27:27;;;;;;;12.02;9.35;;;;;;;;;;4850736;29;20057;-90
2023/04/07 10:29:53;;;;;;;14.50;9.88;;;;;;;;;;4850160;29;20486;-90
2023/04/07 10:32:20;;;;;;;15.77;10.25;;;;;;;;;;4865172;29;20064;-89
2023/04/07 10:34:53;;;;;;;16.55;11.38;;;;;;;;;;4865315;29;20144;-91
2023/04/07 10:37:22;;;;;;;13.48;10.55;;;;;;;;;;4850080;29;20404;-90
2023/04/07 10:39:52;;;;;;;13.45;10.77;;;;;;;;;;4865691;29;20065;-90
2023/04/07 10:42:40;;;;;;;14.55;11.70;;;;;;;;;;4851202;29;20060;-91
2023/04/07 10:45:08;;;;;;;12.73;10.15;;;;;;;;;;4850536;29;20093;-90
2023/04/07 10:47:35;;;;;;;14.60;10.40;;;;;;;;;;4850012;29;20502;-90
2023/04/07 10:50:20;;;;;;;15.05;10.60;;;;;;;;;;4865453;29;20076;-90
2023/04/07 10:52:47;;;;;;;13.23;9.88;;;;;;;;;;4848771;29;20057;-90
2023/04/07 10:55:30;;;;;;;13.52;9.80;;;;;;;;;;4851063;29;20510;-90
2023/04/07 10:58:15;;;;;;;13.60;9.45;;;;;;;;;;4850915;29;20048;-89
2023/04/07 11:00:42;;;;;;;10.10;7.75;;;;;;;;;;4865983;29;20422;-89
2023/04/07 11:03:12;;;;;;;11.27;8.52;;;;;;;;;;4835771;29;20056;-94
2023/04/07 11:05:42;;;;;;;10.10;8.05;;;;;;;;;;4850623;29;20392;-90
2023/04/07 11:08:08;;;;;;;8.73;7.30;;;;;;;;;;4850194;29;20085;-90
2023/04/07 11:10:35;;;;;;;15.25;8.48;;;;;;;;;;4849447;29;20139;-92
2023/04/07 11:13:03;;;;;;;11.73;6.80;;;;;;;;;;4850192;29;20045;-92
2023/04/07 11:15:29;;;;;;;10.85;7.75;;;;;;;;;;4849837;29;20061;-91
2023/04/07 11:18:15;;;;;;;9.18;7.75;;;;;;;;;;4849339;29;20109;-90
2023/04/07 11:20:42;;;;;;;9.35;7.80;;;;;;;;;;4865743;29;20152;-89
2023/04/07 11:23:09;;;;;;;15.45;8.48;;;;;;;;;;4850821;29;20116;-90
2023/04/07 11:25:35;;;;;;;10.07;7.45;;;;;;;;;;4850668;29;20085;-90
2023/04/07 11:28:03;;;;;;;9.82;7.53;;;;;;;;;;4849844;29;20415;-90
2023/04/07 11:30:29;;;;;;;9.98;7.15;;;;;;;;;;4849641;29;20399;-90
2023/04/07 11:32:58;;;;;;;8.25;6.75;;;;;;;;;;4850513;29;20077;-92
2023/04/07 11:35:25;;;;;;;8.95;7.60;;;;;;;;;;4867933;29;20133;-90
2023/04/07 11:37:59;;;;;;;9.57;7.50;;;;;;;;;;4868423;29;20057;-90
2023/04/07 11:40:37;;;;;;;12.00;9.20;;;;;;;;;;4852118;29;20067;-90
2023/04/07 11:43:24;;;;;;;9.85;8.15;;;;;;;;;;4851395;29;20053;-90
2023/04/07 11:46:10;;;;;;;11.88;9.65;;;;;;;;;;4866926;29;20048;-89
2023/04/07 11:48:37;;;;;;;10.65;9.00;;;;;;;;;;4852148;29;20371;-90
2023/04/07 11:51:03;;;;;;;10.73;8.90;;;;;;;;;;4866670;29;20415;-91
2023/04/07 11:53:45;;;;;;;12.13;9.43;;;;;;;;;;4883345;29;20057;-90
2023/04/07 11:56:18;;;;;;;11.65;8.95;;;;;;;;;;4851470;29;20045;-91
2023/04/07 11:58:51;;;;;;;12.20;9.43;;;;;;;;;;4852159;29;20053;-90
2023/04/07 12:01:18;;;;;;;10.32;8.40;;;;;;;;;;4867003;29;20056;-91
2023/04/07 12:03:57;;;;;;;11.13;8.75;;;;;;;;;;4865873;29;20053;-89
2023/04/07 12:06:42;;;;;;;12.98;8.80;;;;;;;;;;4866016;29;20084;-89
2023/04/07 12:09:09;;;;;;;11.13;9.35;;;;;;;;;;4835734;29;20049;-90
2023/04/07 12:11:36;;;;;;;12.52;9.20;;;;;;;;;;4850566;29;20529;-91
2023/04/07 12:14:05;;;;;;;13.63;10.20;;;;;;;;;;4851114;29;20057;-90
2023/04/07 12:16:31;;;;;;;11.60;9.43;;;;;;;;;;4868421;29;20076;-90
2023/04/07 12:18:58;;;;;;;12.82;9.05;;;;;;;;;;4868598;29;20063;-92
2023/04/07 12:21:25;;;;;;;11.73;9.00;;;;;;;;;;4851907;29;20139;-92
2023/04/07 12:23:51;;;;;;;11.20;9.02;;;;;;;;;;4838848;29;20135;-91
2023/04/07 12:26:20;;;;;;;12.93;9.52;;;;;;;;;;4852695;29;20053;-90
2023/04/07 12:28:50;;;;;;;11.45;8.60;;;;;;;;;;4852252;29;20049;-92
2023/04/07 12:31:22;;;;;;;12.65;9.77;;;;;;;;;;4851994;29;20107;-92
2023/04/07 12:33:57;;;;;;;14.98;9.95;;;;;;;;;;4853711;29;20064;-92
2023/04/07 12:36:28;;;;;;;12.07;8.90;;;;;;;;;;4838560;29;20064;-91
2023/04/07 12:39:04;;;;;;;11.43;8.40;;;;;;;;;;4868045;29;20060;-93
2023/04/07 12:41:31;;;;;;;12.95;8.35;;;;;;;;;;4868288;29;20061;-92
2023/04/07 12:44:00;;;;;;;9.65;8.10;;;;;;;;;;4851642;29;20051;-91
2023/04/07 12:46:28;;;;;;;8.65;7.18;;;;;;;;;;4866935;29;20061;-92
2023/04/07 12:48:57;;;;;;;8.60;7.63;;;;;;;;;;4850714;29;20059;-91
2023/04/07 12:51:24;;;;;;;9.98;7.82;;;;;;;;;;4850388;29;20206;-90
2023/04/07 12:53:52;;;;;;;9.70;8.00;;;;;;;;;;4866982;29;20117;-89
2023/04/07 12:56:21;;;;;;;9.43;8.43;;;;;;;;;;4851236;29;20507;-88
2023/04/07 12:58:47;;;;;;;8.85;7.38;;;;;;;;;;4867074;29;20056;-90
2023/04/07 13:01:16;;;;;;;11.65;7.78;;;;;;;;;;4850580;29;20053;-90
2023/04/07 13:03:45;;;;;;;11.27;7.63;;;;;;;;;;4835263;29;20049;-90
2023/04/07 13:06:11;;;;;;;11.05;7.25;;;;;;;;;;4865653;29;20108;-89
2023/04/07 13:08:38;;;;;;;10.80;7.28;;;;;;;;;;4850510;29;20045;-89
2023/04/07 13:16:15;;;;;;;14.05;7.90;;;;;;;;;;4882035;27;20060;-89
2023/04/07 13:18:47;;;;;;;9.70;7.38;;;;;;;;;;4889549;29;20091;-93
2023/04/07 13:21:14;;;;;;;8.10;7.28;;;;;;;;;;4874941;29;20056;-96
2023/04/07 13:23:40;;;;;;;10.32;7.15;;;;;;;;;;4873098;29;20052;-90
2023/04/07 13:26:12;;;;;;;8.60;7.32;;;;;;;;;;4873304;29;20127;-91
2023/04/07 13:28:38;;;;;;;9.45;6.93;;;;;;;;;;4872165;29;20056;-90
2023/04/07 13:31:05;;;;;;;8.80;7.50;;;;;;;;;;4857019;29;20048;-91
2023/04/07 13:33:36;;;;;;;10.82;8.13;;;;;;;;;;4879604;29;20048;-92
2023/04/07 13:36:02;;;;;;;8.93;7.93;;;;;;;;;;4893005;29;20058;-94
2023/04/07 13:38:29;;;;;;;9.90;7.80;;;;;;;;;;4879009;29;20083;-94
2023/04/07 13:40:55;;;;;;;8.65;6.30;;;;;;;;;;4896098;29;20120;-94
2023/04/07 13:43:25;;;;;;;9.05;6.82;;;;;;;;;;4896394;29;20117;-94
2023/04/07 13:45:51;;;;;;;9.07;7.60;;;;;;;;;;4912181;29;20065;-95
2023/04/07 13:48:18;;;;;;;8.30;7.07;;;;;;;;;;4894685;29;20049;-94
2023/04/07 13:50:44;;;;;;;9.48;7.53;;;;;;;;;;4892317;29;20057;-90
2023/04/07 13:53:13;;;;;;;14.18;7.10;;;;;;;;;;4873819;29;20116;-91
2023/04/07 13:55:40;;;;;;;6.95;5.93;;;;;;;;;;4873506;29;20056;-91
2023/04/07 13:58:15;;;;;;;7.32;6.00;;;;;;;;;;4874416;29;20070;-90
2023/04/07 14:00:44;;;;;;;7.22;5.57;;;;;;;;;;4889215;29;20413;-91
2023/04/07 14:03:10;;;;;;;7.00;5.95;;;;;;;;;;4875058;29;20075;-91
2023/04/07 14:05:36;;;;;;;10.48;7.70;;;;;;;;;;4874527;29;20048;-92
2023/04/07 14:08:03;;;;;;;7.88;6.20;;;;;;;;;;4872132;29;20088;-94
2023/04/07 14:10:29;;;;;;;6.90;6.07;;;;;;;;;;4872009;29;20055;-91
2023/04/07 14:12:55;;;;;;;9.63;5.95;;;;;;;;;;4872010;29;20096;-91
2023/04/07 14:15:22;;;;;;;5.93;4.90;;;;;;;;;;4856678;29;20060;-92
2023/04/07 14:18:08;;;;;;;5.85;5.25;;;;;;;;;;4856679;29;20096;-91
2023/04/07 14:20:34;;;;;;;6.47;5.57;;;;;;;;;;4887222;29;20463;-92
2023/04/07 14:23:00;;;;;;;5.93;5.32;;;;;;;;;;4872058;29;20099;-92
2023/04/07 14:25:36;;;;;;;5.90;5.30;;;;;;;;;;4873398;29;20048;-91
2023/04/07 14:28:12;;;;;;;7.78;5.60;;;;;;;;;;4872288;29;20053;-90
2023/04/07 14:30:41;;;;;;;6.32;5.55;;;;;;;;;;4892693;29;20143;-90
2023/04/07 14:33:07;;;;;;;6.43;5.22;;;;;;;;;;4870550;29;20052;-90
2023/04/07 14:35:36;;;;;;;7.82;5.35;;;;;;;;;;4854815;29;20095;-89
2023/04/07 14:38:02;;;;;;;7.75;6.13;;;;;;;;;;4870757;29;20057;-89
2023/04/07 14:40:28;;;;;;;8.23;5.72;;;;;;;;;;4870664;29;20045;-90